Time;durP1;ratioP1;P1;durP2;ratioP2;P2;SDS_P1;SDS_P2;PMS_P1;PMS_P2;Temp;Humidity;BMP_temperature;BMP_pressure;BME280_temperature;BME280_humidity;BME280_pressure;Samples;Min_cycle;Max_cycle;Signal;HPM_P1;HPM_P2
2021/04/10 00:01:18;;;;;;;14.67;10.63;;;11.00;1.00;;;;;;5074994;28;20203;-76
2021/04/10 00:03:44;;;;;;;13.47;11.47;;;11.00;1.00;;;;;;5075065;28;20192;-83
2021/04/10 00:06:11;;;;;;;10.87;9.77;;;11.10;1.00;;;;;;5075071;28;20252;-77
2021/04/10 00:08:37;;;;;;;12.37;9.57;;;11.30;1.00;;;;;;5075050;28;20640;-76
2021/04/10 00:11:03;;;;;;;13.20;10.03;;;11.50;1.00;;;;;;5074872;28;20259;-81
2021/04/10 00:13:28;;;;;;;12.07;10.23;;;11.50;1.00;;;;;;5075076;28;20272;-82
2021/04/10 00:15:54;;;;;;;14.07;9.67;;;11.60;1.00;;;;;;5075043;28;20664;-82
2021/04/10 00:18:20;;;;;;;14.20;9.87;;;11.30;1.00;;;;;;5074774;28;20176;-77
2021/04/10 00:20:45;;;;;;;12.43;10.07;;;11.30;1.00;;;;;;5074786;28;20221;-77
2021/04/10 00:23:11;;;;;;;13.53;11.13;;;11.30;1.00;;;;;;5074752;28;20580;-76
2021/04/10 00:25:37;;;;;;;13.83;10.43;;;11.20;1.00;;;;;;5074428;28;20203;-76
2021/04/10 00:28:03;;;;;;;12.33;9.67;;;11.30;1.00;;;;;;5056612;28;20333;-79
2021/04/10 00:30:28;;;;;;;14.07;10.47;;;11.30;1.00;;;;;;5074642;28;20206;-80
2021/04/10 00:32:54;;;;;;;12.47;10.10;;;11.40;1.00;;;;;;5074447;28;20176;-77
2021/04/10 00:35:20;;;;;;;14.53;10.00;;;11.40;1.00;;;;;;5074569;28;20172;-82
2021/04/10 00:37:46;;;;;;;12.57;10.23;;;11.50;1.00;;;;;;5074559;28;20582;-77
2021/04/10 00:40:12;;;;;;;12.03;10.47;;;11.50;1.00;;;;;;5056175;28;20180;-78
2021/04/10 00:42:38;;;;;;;13.57;10.60;;;11.60;1.00;;;;;;5074666;28;20196;-82
2021/04/10 00:45:08;;;;;;;12.50;10.47;;;11.50;1.00;;;;;;5074129;28;20258;-80
2021/04/10 00:47:34;;;;;;;14.67;11.10;;;11.50;1.00;;;;;;5074489;28;20168;-83
2021/04/10 00:50:00;;;;;;;14.50;11.87;;;11.50;1.00;;;;;;5074211;28;20203;-76
2021/04/10 00:52:27;;;;;;;15.50;12.60;;;11.40;1.00;;;;;;5074025;28;20173;-81
2021/04/10 00:54:53;;;;;;;16.63;10.93;;;11.30;1.00;;;;;;5073856;28;20508;-76
2021/04/10 00:57:21;;;;;;;12.77;10.30;;;11.20;1.00;;;;;;5055291;28;20180;-79
2021/04/10 00:59:47;;;;;;;12.97;10.07;;;11.20;1.00;;;;;;5074127;28;20176;-78
2021/04/10 01:02:13;;;;;;;11.40;10.20;;;11.20;1.00;;;;;;5073703;28;20229;-78
2021/04/10 01:04:43;;;;;;;12.67;11.27;;;11.30;1.00;;;;;;5074142;28;20212;-77
2021/04/10 01:07:09;;;;;;;11.60;10.33;;;11.30;1.00;;;;;;5073816;28;20165;-82
2021/04/10 01:09:35;;;;;;;16.63;11.10;;;11.20;1.00;;;;;;5073759;28;20171;-82
2021/04/10 01:12:10;;;;;;;12.10;10.73;;;11.20;1.00;;;;;;5073687;28;20157;-80
2021/04/10 01:14:50;;;;;;;14.33;10.37;;;11.30;1.00;;;;;;5073942;28;20524;-82
2021/04/10 01:17:21;;;;;;;13.17;11.07;;;11.50;1.00;;;;;;5073681;28;20747;-84
2021/04/10 01:20:09;;;;;;;13.23;10.93;;;11.50;1.00;;;;;;5073834;28;20168;-81
2021/04/10 01:23:03;;;;;;;11.87;10.43;;;11.70;1.00;;;;;;5073777;28;20254;-83
2021/04/10 01:25:52;;;;;;;15.10;11.70;;;11.80;1.00;;;;;;5073262;28;20247;-81
2021/04/10 01:29:00;;;;;;;12.17;10.87;;;11.80;1.00;;;;;;5073275;28;20238;-77
2021/04/10 01:31:32;;;;;;;15.87;11.90;;;11.90;1.00;;;;;;5072584;28;20195;-78
2021/04/10 01:34:02;;;;;;;12.13;10.53;;;11.90;1.00;;;;;;5073602;28;20628;-81
2021/04/10 01:36:32;;;;;;;14.03;11.30;;;11.70;1.00;;;;;;5073091;28;20494;-81
2021/04/10 01:39:00;;;;;;;14.27;11.20;;;11.30;1.00;;;;;;5073202;28;20251;-79
2021/04/10 01:41:26;;;;;;;13.07;11.70;;;11.10;1.00;;;;;;5073334;28;20190;-82
2021/04/10 01:43:53;;;;;;;12.47;11.10;;;11.00;1.00;;;;;;5073454;28;20200;-84
2021/04/10 01:46:22;;;;;;;14.47;11.40;;;11.00;1.00;;;;;;5072996;28;20208;-78
2021/04/10 01:48:48;;;;;;;14.50;12.07;;;11.00;1.00;;;;;;5073381;28;20511;-83
2021/04/10 01:51:16;;;;;;;12.80;11.20;;;11.20;1.00;;;;;;5073120;28;20195;-83
2021/04/10 01:53:42;;;;;;;15.20;11.20;;;11.20;1.00;;;;;;5073182;28;20199;-81
2021/04/10 01:56:10;;;;;;;13.60;12.00;;;11.20;1.00;;;;;;5073097;28;20176;-81
2021/04/10 01:58:37;;;;;;;15.17;12.20;;;11.30;1.00;;;;;;5073211;28;20663;-84
2021/04/10 02:01:07;;;;;;;13.57;12.10;;;11.10;1.00;;;;;;5072991;28;20181;-76
2021/04/10 02:03:34;;;;;;;15.47;12.57;;;10.90;1.00;;;;;;5073314;28;20270;-76
2021/04/10 02:06:01;;;;;;;13.60;11.17;;;10.80;1.00;;;;;;5073380;28;20223;-77
2021/04/10 02:08:28;;;;;;;15.07;12.20;;;10.60;1.00;;;;;;5072876;28;20689;-77
2021/04/10 02:10:55;;;;;;;15.17;12.00;;;10.50;1.00;;;;;;5055381;28;20547;-76
2021/04/10 02:13:22;;;;;;;15.67;12.07;;;10.50;1.00;;;;;;5073130;28;20626;-81
2021/04/10 02:15:51;;;;;;;15.80;12.50;;;10.30;1.00;;;;;;5073152;28;20180;-80
2021/04/10 02:18:19;;;;;;;17.53;12.67;;;10.30;1.00;;;;;;5055210;28;20169;-81
2021/04/10 02:20:45;;;;;;;15.90;12.37;;;10.30;1.00;;;;;;5073565;28;20221;-77
2021/04/10 02:23:13;;;;;;;15.83;11.67;;;10.20;1.00;;;;;;5072827;28;20230;-79
2021/04/10 02:25:39;;;;;;;14.50;12.33;;;10.10;1.00;;;;;;5073127;28;20294;-81
2021/04/10 02:28:04;;;;;;;12.90;11.50;;;10.10;1.00;;;;;;5073054;28;20266;-83
2021/04/10 02:30:30;;;;;;;17.07;12.50;;;10.20;1.00;;;;;;5073036;28;20175;-82
2021/04/10 02:33:02;;;;;;;15.77;12.33;;;10.30;1.00;;;;;;5073179;28;20172;-83
2021/04/10 02:35:39;;;;;;;15.87;12.43;;;10.20;1.00;;;;;;5055195;28;20180;-81
2021/04/10 02:38:06;;;;;;;15.93;12.00;;;10.20;1.00;;;;;;5072826;28;20172;-81
2021/04/10 02:40:35;;;;;;;17.27;12.27;;;10.10;1.00;;;;;;5072910;28;20165;-81
2021/04/10 02:43:03;;;;;;;16.10;12.60;;;10.00;1.00;;;;;;5072942;28;20165;-79
2021/04/10 02:45:29;;;;;;;16.10;13.13;;;10.00;1.00;;;;;;5072883;28;20609;-81
2021/04/10 02:48:09;;;;;;;17.73;12.70;;;9.90;1.00;;;;;;5072881;28;20173;-81
2021/04/10 02:50:37;;;;;;;17.07;12.87;;;9.70;1.00;;;;;;5072705;28;20218;-79
2021/04/10 02:53:05;;;;;;;16.17;11.63;;;9.50;1.00;;;;;;5072763;28;20156;-80
2021/04/10 02:55:45;;;;;;;14.10;12.00;;;9.50;1.00;;;;;;5072828;28;20248;-82
2021/04/10 02:58:12;;;;;;;17.03;12.57;;;9.50;2.30;;;;;;5072940;28;20210;-81
2021/04/10 03:00:41;;;;;;;17.37;12.37;;;9.40;6.20;;;;;;5072900;28;20204;-78
2021/04/10 03:03:10;;;;;;;20.77;13.17;;;9.50;9.60;;;;;;5072569;28;20213;-78
2021/04/10 03:05:38;;;;;;;16.87;13.07;;;9.40;10.30;;;;;;5072685;28;20239;-83
2021/04/10 03:08:06;;;;;;;17.20;13.00;;;9.30;15.50;;;;;;5072700;28;20168;-82
2021/04/10 03:10:32;;;;;;;16.87;12.73;;;9.30;18.50;;;;;;5072847;28;20179;-82
2021/04/10 03:12:59;;;;;;;15.03;12.13;;;9.30;21.50;;;;;;5072598;28;20255;-79
2021/04/10 03:15:26;;;;;;;19.57;13.40;;;9.30;24.00;;;;;;5072329;28;20168;-78
2021/04/10 03:17:52;;;;;;;18.83;15.00;;;9.30;26.80;;;;;;5072418;28;20175;-81
2021/04/10 03:20:20;;;;;;;19.63;14.70;;;9.20;33.40;;;;;;5072924;28;20540;-82
2021/04/10 03:22:48;;;;;;;19.50;12.77;;;9.20;37.40;;;;;;5076115;28;20164;-82
2021/04/10 03:25:15;;;;;;;21.83;13.83;;;9.20;39.80;;;;;;5076384;28;20200;-82
2021/04/10 03:27:42;;;;;;;24.50;15.00;;;9.20;45.20;;;;;;5075892;28;20167;-81
2021/04/10 03:30:10;;;;;;;21.80;14.80;;;9.00;49.90;;;;;;5076144;28;20241;-83
2021/04/10 03:32:37;;;;;;;20.33;14.63;;;8.80;57.10;;;;;;5076242;28;20639;-81
2021/04/10 03:35:04;;;;;;;23.37;15.13;;;8.80;62.30;;;;;;5075592;28;20621;-76
2021/04/10 03:37:31;;;;;;;22.43;15.97;;;8.80;66.50;;;;;;5075991;28;20217;-77
2021/04/10 03:39:57;;;;;;;23.77;17.07;;;8.70;73.00;;;;;;5076058;28;20168;-81
2021/04/10 03:42:43;;;;;;;23.77;16.97;;;8.50;80.00;;;;;;5076999;28;20195;-83
2021/04/10 03:45:14;;;;;;;25.23;17.47;;;8.50;83.50;;;;;;5078150;28;20196;-82
2021/04/10 03:47:39;;;;;;;24.87;17.47;;;8.50;87.90;;;;;;5077170;28;20218;-79
2021/04/10 03:50:07;;;;;;;26.30;17.93;;;8.40;90.20;;;;;;5057614;28;20204;-82
2021/04/10 03:52:33;;;;;;;28.47;20.03;;;8.30;91.30;;;;;;5075945;28;20183;-82
2021/04/10 03:54:58;;;;;;;30.23;19.20;;;8.30;91.90;;;;;;5075666;28;20176;-79
2021/04/10 03:57:26;;;;;;;26.10;18.93;;;8.20;92.80;;;;;;5075774;28;20695;-82
2021/04/10 03:59:51;;;;;;;31.27;21.30;;;8.20;93.10;;;;;;5076030;28;20176;-83
2021/04/10 04:02:17;;;;;;;28.03;19.63;;;8.20;93.40;;;;;;5075612;28;20275;-81
2021/04/10 04:04:42;;;;;;;29.63;20.27;;;8.20;93.40;;;;;;5075061;28;20287;-81
2021/04/10 04:07:08;;;;;;;26.43;20.23;;;8.20;93.70;;;;;;5075565;28;20165;-77
2021/04/10 04:09:35;;;;;;;32.03;22.17;;;8.20;94.20;;;;;;5075039;28;20624;-79
2021/04/10 04:12:02;;;;;;;31.03;22.93;;;8.10;94.40;;;;;;5075339;28;20176;-83
2021/04/10 04:14:27;;;;;;;31.70;21.43;;;8.10;94.40;;;;;;5075054;28;20249;-83
2021/04/10 04:16:53;;;;;;;30.83;22.93;;;8.20;94.30;;;;;;5075431;28;20206;-80
2021/04/10 04:19:18;;;;;;;32.73;23.20;;;8.20;94.40;;;;;;5075086;28;20176;-76
2021/04/10 04:21:44;;;;;;;31.30;22.63;;;8.20;94.30;;;;;;5075012;28;20223;-82
2021/04/10 04:24:10;;;;;;;29.53;23.23;;;8.20;94.20;;;;;;5075113;28;20211;-78
2021/04/10 04:26:35;;;;;;;33.60;23.30;;;8.20;94.30;;;;;;5075128;28;20234;-75
2021/04/10 04:29:01;;;;;;;35.53;24.40;;;8.30;93.70;;;;;;5074891;28;20211;-76
2021/04/10 04:31:27;;;;;;;31.27;23.77;;;8.30;92.80;;;;;;5074261;28;20569;-80
2021/04/10 04:33:53;;;;;;;36.00;24.60;;;8.30;93.30;;;;;;5073992;28;20580;-83
2021/04/10 04:36:18;;;;;;;30.93;23.57;;;8.20;93.60;;;;;;5074684;28;20251;-80
2021/04/10 04:38:44;;;;;;;32.93;24.17;;;8.20;94.20;;;;;;5074752;28;20165;-81
2021/04/10 04:41:09;;;;;;;35.10;23.37;;;8.20;93.70;;;;;;5074427;28;20258;-78
2021/04/10 04:43:35;;;;;;;37.57;24.50;;;8.20;93.50;;;;;;5074636;28;20176;-82
2021/04/10 04:46:01;;;;;;;34.53;24.73;;;8.10;93.90;;;;;;5074516;28;20198;-83
2021/04/10 04:48:26;;;;;;;34.17;23.57;;;8.20;93.90;;;;;;5074290;28;20176;-80
2021/04/10 04:50:52;;;;;;;32.20;24.47;;;8.10;93.80;;;;;;5074639;28;20279;-81
2021/04/10 04:53:18;;;;;;;30.23;22.73;;;8.10;94.70;;;;;;5056594;28;20275;-79
2021/04/10 04:55:44;;;;;;;32.27;23.60;;;8.20;94.40;;;;;;5074421;28;20674;-80
2021/04/10 04:58:10;;;;;;;35.00;24.77;;;8.20;94.00;;;;;;5075419;28;20164;-83
2021/04/10 05:00:35;;;;;;;35.77;24.93;;;8.20;93.90;;;;;;5075868;28;20251;-82
2021/04/10 05:03:01;;;;;;;34.80;25.13;;;8.10;94.20;;;;;;5074412;28;20168;-84
2021/04/10 05:05:27;;;;;;;36.97;24.40;;;8.20;94.50;;;;;;5074027;28;20307;-81
2021/04/10 05:07:53;;;;;;;35.60;26.43;;;8.10;94.80;;;;;;5074276;28;20169;-81
2021/04/10 05:10:19;;;;;;;34.10;25.83;;;8.10;94.60;;;;;;5074166;28;20164;-82
2021/04/10 05:12:44;;;;;;;31.53;24.43;;;8.20;94.50;;;;;;5056061;28;20173;-81
2021/04/10 05:15:10;;;;;;;32.70;24.73;;;8.20;94.80;;;;;;5074209;28;20218;-81
2021/04/10 05:17:36;;;;;;;34.47;24.33;;;8.20;94.30;;;;;;5073780;28;20711;-79
2021/04/10 05:20:03;;;;;;;30.27;24.00;;;8.20;94.50;;;;;;5074138;28;20204;-80
2021/04/10 05:22:28;;;;;;;33.97;24.67;;;8.20;94.60;;;;;;5073603;28;20160;-77
2021/04/10 05:24:54;;;;;;;32.00;24.73;;;8.20;94.80;;;;;;5073907;28;20196;-81
2021/04/10 05:27:20;;;;;;;33.83;23.10;;;8.20;94.80;;;;;;5073798;28;20652;-83
2021/04/10 05:29:45;;;;;;;32.07;22.77;;;8.20;94.60;;;;;;5073573;28;20263;-77
2021/04/10 05:32:11;;;;;;;32.40;22.80;;;8.20;94.90;;;;;;5073330;28;20632;-82
2021/04/10 05:34:37;;;;;;;35.43;24.77;;;8.10;95.40;;;;;;5073595;28;20314;-78
2021/04/10 05:37:02;;;;;;;33.07;24.23;;;8.00;96.50;;;;;;5073582;28;20164;-81
2021/04/10 05:39:28;;;;;;;33.83;25.27;;;7.90;97.10;;;;;;5073789;28;20703;-80
2021/04/10 05:41:53;;;;;;;33.13;24.67;;;7.90;97.60;;;;;;5073457;28;20247;-83
2021/04/10 05:44:19;;;;;;;32.43;23.20;;;7.80;97.90;;;;;;5072740;28;20192;-81
2021/04/10 05:46:45;;;;;;;32.87;24.90;;;7.90;98.50;;;;;;5073326;28;20659;-81
2021/04/10 05:49:11;;;;;;;32.97;25.37;;;7.90;98.90;;;;;;5073532;28;20168;-84
2021/04/10 05:51:36;;;;;;;35.20;25.77;;;7.90;98.50;;;;;;5073165;28;20242;-82
2021/04/10 05:54:02;;;;;;;33.73;26.30;;;8.00;98.80;;;;;;5073345;28;20164;-83
2021/04/10 05:56:28;;;;;;;33.07;25.70;;;8.10;98.30;;;;;;5073216;28;20640;-83
2021/04/10 05:58:53;;;;;;;33.00;24.67;;;8.10;98.20;;;;;;5073128;28;20235;-81
2021/04/10 06:01:19;;;;;;;34.80;24.83;;;8.10;98.50;;;;;;5055102;28;20191;-82
2021/04/10 06:03:45;;;;;;;39.47;26.60;;;8.20;98.40;;;;;;5073209;28;20199;-79
2021/04/10 06:06:11;;;;;;;39.07;25.30;;;8.30;98.00;;;;;;5073066;28;20243;-77
2021/04/10 06:08:38;;;;;;;39.93;26.27;;;8.20;97.70;;;;;;5073153;28;20168;-84
2021/04/10 06:11:04;;;;;;;37.57;26.13;;;8.20;98.40;;;;;;5073375;28;20156;-77
2021/04/10 06:13:29;;;;;;;37.63;26.50;;;8.30;98.40;;;;;;5072846;28;20195;-81
2021/04/10 06:15:55;;;;;;;37.70;26.43;;;8.30;98.10;;;;;;5073347;28;20204;-80
2021/04/10 06:18:21;;;;;;;36.67;26.93;;;8.40;97.90;;;;;;5073032;28;20253;-83
2021/04/10 06:20:46;;;;;;;54.20;43.30;;;8.40;97.90;;;;;;5073272;28;20169;-79
2021/04/10 06:23:12;;;;;;;45.97;34.83;;;8.30;97.70;;;;;;5072928;28;20225;-82
2021/04/10 06:25:38;;;;;;;40.37;30.97;;;8.40;98.20;;;;;;5054954;28;20219;-81
2021/04/10 06:28:04;;;;;;;39.73;27.10;;;8.40;98.00;;;;;;5072365;28;20212;-77
2021/04/10 06:30:30;;;;;;;33.60;25.17;;;8.40;97.50;;;;;;5073049;28;20183;-78
2021/04/10 06:32:56;;;;;;;37.73;27.10;;;8.40;97.50;;;;;;5072516;28;20164;-82
2021/04/10 06:35:22;;;;;;;35.60;25.60;;;8.30;98.00;;;;;;5072793;28;20245;-77
2021/04/10 06:37:47;;;;;;;32.17;25.20;;;8.40;98.90;;;;;;5072830;28;20693;-81
2021/04/10 06:40:13;;;;;;;37.67;28.53;;;8.40;98.50;;;;;;5072852;28;20187;-79
2021/04/10 06:42:41;;;;;;;34.90;25.93;;;8.40;98.10;;;;;;5071969;28;20188;-82
2021/04/10 06:45:07;;;;;;;36.80;26.80;;;8.40;98.30;;;;;;5072698;28;20242;-82
2021/04/10 06:47:34;;;;;;;33.97;25.67;;;8.50;98.20;;;;;;5054367;28;20173;-77
2021/04/10 06:50:02;;;;;;;36.97;25.57;;;8.50;98.10;;;;;;5072646;28;20213;-80
2021/04/10 06:52:29;;;;;;;32.23;23.43;;;8.40;98.50;;;;;;5072473;28;20172;-77
2021/04/10 06:55:06;;;;;;;34.67;26.40;;;8.30;98.70;;;;;;5072612;28;20217;-76
2021/04/10 06:57:39;;;;;;;34.87;26.43;;;8.40;99.40;;;;;;5058018;28;20172;-76
2021/04/10 07:00:09;;;;;;;34.83;25.17;;;8.50;99.80;;;;;;5076390;28;20301;-77
2021/04/10 07:02:37;;;;;;;35.10;26.33;;;8.50;99.70;;;;;;5076011;28;20620;-76
2021/04/10 07:05:03;;;;;;;35.07;24.33;;;8.50;99.50;;;;;;5076196;28;20204;-79
2021/04/10 07:07:28;;;;;;;33.13;24.37;;;8.50;99.40;;;;;;5076247;28;20222;-76
2021/04/10 07:09:54;;;;;;;35.90;25.90;;;8.50;99.60;;;;;;5076196;28;20632;-82
2021/04/10 07:12:21;;;;;;;37.53;26.37;;;8.50;99.70;;;;;;5075567;28;20167;-81
2021/04/10 07:14:46;;;;;;;32.43;25.53;;;8.60;99.60;;;;;;5075642;28;20168;-77
2021/04/10 07:17:13;;;;;;;34.53;25.60;;;8.50;99.10;;;;;;5076040;28;20186;-82
2021/04/10 07:19:39;;;;;;;32.63;24.87;;;8.50;99.60;;;;;;5075546;28;20699;-76
2021/04/10 07:22:09;;;;;;;33.23;25.90;;;8.40;99.50;;;;;;5057998;28;20179;-82
2021/04/10 07:24:46;;;;;;;38.40;26.97;;;8.50;99.70;;;;;;5075778;28;20230;-77
2021/04/10 07:27:23;;;;;;;32.80;25.37;;;8.40;99.70;;;;;;5075890;28;20160;-81
2021/04/10 07:29:51;;;;;;;32.67;25.80;;;8.50;99.90;;;;;;5075094;28;20188;-76
2021/04/10 07:32:36;;;;;;;38.50;26.57;;;8.40;99.80;;;;;;5075462;28;20226;-82
2021/04/10 07:35:17;;;;;;;33.43;24.90;;;8.40;99.90;;;;;;5075381;28;20176;-78
2021/04/10 07:37:50;;;;;;;39.47;25.83;;;8.40;99.90;;;;;;5075184;28;20172;-83
2021/04/10 07:40:25;;;;;;;32.60;26.17;;;8.40;99.90;;;;;;5074974;28;20172;-83
2021/04/10 07:42:51;;;;;;;36.23;27.83;;;8.40;99.90;;;;;;5075118;28;20160;-79
2021/04/10 07:45:35;;;;;;;34.30;27.53;;;8.40;99.90;;;;;;5075271;28;20204;-76
2021/04/10 07:48:13;;;;;;;38.10;27.63;;;8.40;99.90;;;;;;5075364;28;20248;-76
2021/04/10 07:50:39;;;;;;;37.37;26.50;;;8.40;99.90;;;;;;5075542;28;20261;-82
2021/04/10 07:53:28;;;;;;;32.23;26.40;;;8.50;99.90;;;;;;5075260;28;20629;-77
2021/04/10 07:55:56;;;;;;;34.57;26.33;;;8.50;99.90;;;;;;5074683;28;20167;-81
2021/04/10 07:58:31;;;;;;;32.97;25.93;;;8.60;99.90;;;;;;5075401;28;20169;-82
2021/04/10 08:01:00;;;;;;;35.53;26.20;;;8.60;99.90;;;;;;5075230;28;20511;-76
2021/04/10 08:03:30;;;;;;;38.17;27.83;;;8.60;99.90;;;;;;5075357;28;20180;-83
2021/04/10 08:06:06;;;;;;;33.33;26.67;;;8.60;99.90;;;;;;5057197;28;20222;-81
2021/04/10 08:08:44;;;;;;;35.63;27.43;;;8.70;99.90;;;;;;5075236;28;20164;-84
2021/04/10 08:11:10;;;;;;;34.27;26.90;;;8.70;99.90;;;;;;5074586;28;20172;-77
2021/04/10 08:13:36;;;;;;;33.20;26.33;;;8.70;99.90;;;;;;5057549;28;20215;-81
2021/04/10 08:16:18;;;;;;;33.27;25.90;;;8.70;99.90;;;;;;5075517;28;20246;-77
2021/04/10 08:18:48;;;;;;;29.80;24.87;;;8.70;99.90;;;;;;5075303;28;20164;-81
2021/04/10 08:21:21;;;;;;;30.97;24.23;;;8.60;99.90;;;;;;5075250;28;20644;-82
2021/04/10 08:23:48;;;;;;;31.13;24.73;;;8.60;99.90;;;;;;5057510;28;20663;-84
2021/04/10 08:26:15;;;;;;;29.97;24.23;;;8.60;99.90;;;;;;5074364;28;20187;-84
2021/04/10 08:28:42;;;;;;;31.33;25.93;;;8.60;99.90;;;;;;5074419;28;20522;-84
2021/04/10 08:31:08;;;;;;;32.83;25.87;;;8.60;99.90;;;;;;5074927;28;20688;-78
2021/04/10 08:33:34;;;;;;;32.70;25.93;;;8.70;99.90;;;;;;5056694;28;20272;-76
2021/04/10 08:36:08;;;;;;;36.00;26.60;;;8.70;99.90;;;;;;5074536;28;20164;-79
2021/04/10 08:38:37;;;;;;;30.97;24.67;;;8.70;99.90;;;;;;5074417;28;20213;-85
2021/04/10 08:41:06;;;;;;;29.27;23.77;;;8.70;99.90;;;;;;5074295;28;20168;-82
2021/04/10 08:43:35;;;;;;;28.40;24.70;;;8.70;99.90;;;;;;5056329;28;20532;-83
2021/04/10 08:46:03;;;;;;;32.90;24.30;;;8.70;99.90;;;;;;5073976;28;20172;-82
2021/04/10 08:48:29;;;;;;;33.90;25.40;;;8.70;99.90;;;;;;5074087;28;20175;-77
2021/04/10 08:50:59;;;;;;;29.47;24.73;;;8.70;99.90;;;;;;5073908;28;20596;-83
2021/04/10 08:53:28;;;;;;;28.00;23.20;;;8.70;99.90;;;;;;5073819;28;20171;-77
2021/04/10 08:55:55;;;;;;;31.37;24.63;;;8.80;99.90;;;;;;5074073;28;20164;-84
2021/04/10 08:58:31;;;;;;;26.03;22.10;;;8.90;99.90;;;;;;5055882;28;20204;-83
2021/04/10 09:00:58;;;;;;;27.07;22.73;;;8.80;99.90;;;;;;5073585;28;20168;-77
2021/04/10 09:03:59;;;;;;;26.43;22.30;;;8.80;99.90;;;;;;5073900;28;20659;-80
2021/04/10 09:06:31;;;;;;;28.40;22.63;;;8.90;99.90;;;;;;4973252;28;20200;-80
2021/04/10 09:09:14;;;;;;;29.23;23.23;;;8.90;99.90;;;;;;5057208;28;20233;-78
2021/04/10 09:11:43;;;;;;;29.60;24.37;;;8.90;99.90;;;;;;5073409;28;20236;-83
2021/04/10 09:14:09;;;;;;;28.20;23.83;;;8.90;99.90;;;;;;5073798;28;20532;-81
2021/04/10 09:16:42;;;;;;;29.83;22.67;;;8.90;99.90;;;;;;5074468;28;20168;-77
2021/04/10 09:19:10;;;;;;;30.93;23.30;;;9.00;99.90;;;;;;5072501;28;20207;-84
2021/04/10 09:21:52;;;;;;;31.13;24.13;;;8.90;99.90;;;;;;5073372;28;20530;-77
2021/04/10 09:24:20;;;;;;;29.33;24.40;;;8.80;99.90;;;;;;5073547;28;20196;-80
2021/04/10 09:26:53;;;;;;;30.80;25.07;;;8.80;99.90;;;;;;5055513;28;20164;-80
2021/04/10 09:29:19;;;;;;;27.63;23.23;;;8.90;99.90;;;;;;5073378;28;20188;-85
2021/04/10 09:31:53;;;;;;;29.30;25.07;;;8.90;99.90;;;;;;5073321;28;20172;-78
2021/04/10 09:34:50;;;;;;;30.83;25.63;;;9.00;99.90;;;;;;5073169;28;20171;-79
2021/04/10 09:37:22;;;;;;;29.20;24.73;;;9.00;99.90;;;;;;5072655;28;20176;-80
2021/04/10 09:39:52;;;;;;;31.17;25.87;;;9.00;99.90;;;;;;5072870;28;20172;-82
2021/04/10 09:42:44;;;;;;;30.40;25.43;;;9.10;99.90;;;;;;5072518;28;20305;-79
2021/04/10 09:45:31;;;;;;;29.63;25.17;;;9.10;99.90;;;;;;5072668;28;20597;-77
2021/04/10 09:50:28;;;;;;;33.27;26.40;;;9.10;99.90;;;;;;5072979;28;20203;-80
2021/04/10 09:52:55;;;;;;;33.97;26.97;;;9.10;99.90;;;;;;5072597;28;20222;-77
2021/04/10 09:55:22;;;;;;;31.10;26.33;;;9.10;99.90;;;;;;5072873;28;20200;-82
2021/04/10 09:57:54;;;;;;;33.30;26.77;;;9.20;99.90;;;;;;5072856;28;20169;-82
2021/04/10 10:00:27;;;;;;;30.77;26.30;;;9.10;99.90;;;;;;5072624;28;20656;-77
2021/04/10 10:02:53;;;;;;;32.53;26.43;;;9.10;99.90;;;;;;5072781;28;20172;-77
2021/04/10 10:05:20;;;;;;;31.23;27.17;;;9.30;99.90;;;;;;5072380;28;20575;-77
2021/04/10 10:07:46;;;;;;;31.70;26.90;;;9.20;99.90;;;;;;5072146;28;20167;-85
2021/04/10 10:10:13;;;;;;;30.53;25.90;;;9.30;99.90;;;;;;5072148;28;20172;-78
2021/04/10 10:12:39;;;;;;;30.17;25.33;;;9.20;99.90;;;;;;5074164;28;20252;-81
2021/04/10 10:15:22;;;;;;;31.47;27.33;;;9.20;99.90;;;;;;5076659;28;20200;-85
2021/04/10 10:17:48;;;;;;;31.57;25.77;;;9.30;99.90;;;;;;5072831;28;20168;-81
2021/04/10 10:20:15;;;;;;;30.87;27.00;;;9.30;99.90;;;;;;5072134;28;20176;-81
2021/04/10 10:22:42;;;;;;;28.27;24.20;;;9.40;99.90;;;;;;5074237;28;20214;-82
2021/04/10 10:25:10;;;;;;;25.87;23.07;;;9.50;99.90;;;;;;5062130;28;20208;-81
2021/04/10 10:27:41;;;;;;;25.53;21.70;;;9.50;99.90;;;;;;5079723;28;20182;-78
2021/04/10 10:30:26;;;;;;;26.83;24.00;;;9.50;99.90;;;;;;5081397;28;20180;-85
2021/04/10 10:32:51;;;;;;;27.20;22.77;;;9.40;99.90;;;;;;5077686;28;20187;-81
2021/04/10 10:35:18;;;;;;;25.07;22.37;;;9.50;99.90;;;;;;5077903;28;20183;-79
2021/04/10 10:37:48;;;;;;;28.40;23.07;;;9.50;99.90;;;;;;5076844;28;20234;-79
2021/04/10 10:40:28;;;;;;;25.83;23.03;;;9.50;99.90;;;;;;5076438;28;20191;-83
2021/04/10 10:43:05;;;;;;;23.33;20.93;;;9.60;99.90;;;;;;5076543;28;20156;-77
2021/04/10 10:45:51;;;;;;;26.97;23.97;;;9.60;99.90;;;;;;5076189;28;20643;-77
2021/04/10 10:48:24;;;;;;;24.00;21.50;;;9.70;99.90;;;;;;5076064;28;20198;-78
2021/04/10 10:50:56;;;;;;;25.57;22.80;;;9.70;99.90;;;;;;5075766;28;20194;-79
2021/04/10 10:53:24;;;;;;;23.47;21.00;;;9.80;99.90;;;;;;5076406;28;20160;-79
2021/04/10 10:55:58;;;;;;;22.60;20.13;;;9.90;99.90;;;;;;5076466;28;20640;-81
2021/04/10 10:58:24;;;;;;;24.50;22.00;;;9.90;99.90;;;;;;5075772;28;20168;-77
2021/04/10 11:00:53;;;;;;;25.37;21.43;;;10.00;99.90;;;;;;5076026;28;20209;-78
2021/04/10 11:03:22;;;;;;;23.10;20.80;;;10.10;99.90;;;;;;5075751;28;20183;-78
2021/04/10 11:05:49;;;;;;;22.00;19.73;;;10.20;99.90;;;;;;5075968;28;20250;-85
2021/04/10 11:08:17;;;;;;;23.20;20.83;;;10.20;99.50;;;;;;5075721;28;20200;-79
2021/04/10 11:10:44;;;;;;;22.77;20.37;;;10.20;99.90;;;;;;5075628;28;20175;-81
2021/04/10 11:13:11;;;;;;;22.03;19.70;;;10.30;99.90;;;;;;5075515;28;20211;-77
2021/04/10 11:15:38;;;;;;;20.77;18.60;;;10.40;99.90;;;;;;5075955;28;20278;-79
2021/04/10 11:18:04;;;;;;;19.47;17.57;;;10.40;99.30;;;;;;5075149;28;20506;-83
2021/04/10 11:20:34;;;;;;;18.50;16.63;;;10.40;98.50;;;;;;5075369;28;20180;-83
2021/04/10 11:23:07;;;;;;;19.17;17.27;;;10.40;97.50;;;;;;5075571;28;20699;-85
2021/04/10 11:25:54;;;;;;;17.97;16.17;;;10.60;98.50;;;;;;5057438;28;20565;-79
2021/04/10 11:28:30;;;;;;;16.33;14.73;;;10.70;97.10;;;;;;5075409;28;20187;-78
2021/04/10 11:31:09;;;;;;;16.37;14.77;;;10.60;94.50;;;;;;5075882;28;20245;-84
2021/04/10 11:33:36;;;;;;;13.97;12.57;;;10.60;95.60;;;;;;5076179;28;20176;-83
2021/04/10 11:36:03;;;;;;;15.27;13.67;;;10.70;94.70;;;;;;5075598;28;20195;-84
2021/04/10 11:38:28;;;;;;;14.87;13.37;;;10.50;94.60;;;;;;5075189;28;20172;-79
2021/04/10 11:40:54;;;;;;;15.07;13.57;;;10.50;94.80;;;;;;5074973;28;20212;-80
2021/04/10 11:43:20;;;;;;;15.90;14.30;;;10.50;94.60;;;;;;5075208;28;20644;-77
2021/04/10 11:45:49;;;;;;;15.50;13.87;;;10.50;95.10;;;;;;5075214;28;20590;-84
2021/04/10 11:48:23;;;;;;;14.27;12.77;;;10.60;96.60;;;;;;5075071;28;20170;-84
2021/04/10 11:50:58;;;;;;;14.23;12.83;;;10.80;96.00;;;;;;5074871;28;20267;-77
2021/04/10 11:53:35;;;;;;;13.97;12.57;;;10.70;92.90;;;;;;5057202;28;20202;-85
2021/04/10 11:56:21;;;;;;;13.23;11.83;;;10.70;93.70;;;;;;5075003;28;20650;-79
2021/04/10 11:58:47;;;;;;;12.63;11.33;;;10.70;92.80;;;;;;5074667;28;20187;-78
2021/04/10 12:01:13;;;;;;;11.97;10.30;;;10.70;91.90;;;;;;5074369;28;20169;-77
2021/04/10 12:04:02;;;;;;;11.47;10.27;;;10.80;90.90;;;;;;5074462;28;20177;-83
2021/04/10 12:06:34;;;;;;;12.90;11.13;;;10.80;88.40;;;;;;5074670;28;20227;-77
2021/04/10 12:09:13;;;;;;;10.57;9.47;;;10.90;90.90;;;;;;5056588;28;20176;-83
2021/04/10 12:11:41;;;;;;;10.60;9.60;;;11.00;89.10;;;;;;5074604;28;20160;-79
2021/04/10 12:14:09;;;;;;;10.83;9.73;;;11.00;88.60;;;;;;5074469;28;20222;-78
2021/04/10 12:16:35;;;;;;;10.30;9.13;;;10.90;88.30;;;;;;5074573;28;20525;-79
2021/04/10 12:19:01;;;;;;;10.77;9.67;;;10.90;86.00;;;;;;5074341;28;20255;-80
2021/04/10 12:21:27;;;;;;;10.60;9.50;;;11.00;85.70;;;;;;5074066;28;20652;-77
2021/04/10 12:23:52;;;;;;;9.27;8.33;;;11.10;86.60;;;;;;5074475;28;20226;-84
2021/04/10 12:26:19;;;;;;;9.87;8.87;;;10.90;84.80;;;;;;5074330;28;20255;-84
2021/04/10 12:28:44;;;;;;;11.40;8.70;;;10.90;85.90;;;;;;5074526;28;20176;-83
2021/04/10 12:31:10;;;;;;;9.40;8.37;;;10.90;86.20;;;;;;5056012;28;20659;-81
2021/04/10 12:33:40;;;;;;;8.10;7.30;;;10.80;85.90;;;;;;5074306;28;20164;-77
2021/04/10 12:36:07;;;;;;;8.40;7.53;;;10.90;86.80;;;;;;5074086;28;20644;-81
2021/04/10 12:38:33;;;;;;;8.80;7.90;;;10.80;84.50;;;;;;5074075;28;20609;-81
2021/04/10 12:40:58;;;;;;;8.93;8.03;;;11.00;86.70;;;;;;5075229;28;20172;-81
2021/04/10 12:43:24;;;;;;;9.30;8.40;;;11.30;86.70;;;;;;5074022;28;20251;-84
2021/04/10 12:45:50;;;;;;;11.57;10.43;;;11.50;83.70;;;;;;5073652;28;20262;-81
2021/04/10 12:48:15;;;;;;;11.73;10.53;;;11.50;84.20;;;;;;5073191;28;20165;-77